sensor_id;sensor_type;location;lat;lon;timestamp;pressure;altitude;pressure_sealevel;temperature;humidity
3294;BME280;1659;51.470;6.770;2024-01-11T00:00:23;103018.56;;;-4.00;75.58
3294;BME280;1659;51.470;6.770;2024-01-11T00:02:49;103019.31;;;-4.01;75.91
3294;BME280;1659;51.470;6.770;2024-01-11T00:05:16;103029.53;;;-4.03;75.51
3294;BME280;1659;51.470;6.770;2024-01-11T00:07:43;103038.84;;;-4.05;75.79
3294;BME280;1659;51.470;6.770;2024-01-11T00:10:09;103036.16;;;-4.06;75.95
3294;BME280;1659;51.470;6.770;2024-01-11T00:12:36;103041.06;;;-4.09;75.64
3294;BME280;1659;51.470;6.770;2024-01-11T00:15:04;103032.97;;;-4.14;75.80
3294;BME280;1659;51.470;6.770;2024-01-11T00:17:31;103028.47;;;-4.17;76.13
3294;BME280;1659;51.470;6.770;2024-01-11T00:19:58;103027.34;;;-4.20;76.10
3294;BME280;1659;51.470;6.770;2024-01-11T00:22:24;103021.91;;;-4.23;75.76
3294;BME280;1659;51.470;6.770;2024-01-11T00:24:51;103024.38;;;-4.25;76.16
3294;BME280;1659;51.470;6.770;2024-01-11T00:27:17;103018.19;;;-4.27;76.15
3294;BME280;1659;51.470;6.770;2024-01-11T00:29:44;103015.50;;;-4.28;76.31
3294;BME280;1659;51.470;6.770;2024-01-11T00:32:12;103017.94;;;-4.30;76.15
3294;BME280;1659;51.470;6.770;2024-01-11T00:34:38;103016.06;;;-4.32;75.96
3294;BME280;1659;51.470;6.770;2024-01-11T00:37:05;103022.91;;;-4.33;76.21
3294;BME280;1659;51.470;6.770;2024-01-11T00:39:31;103012.31;;;-4.36;76.24
3294;BME280;1659;51.470;6.770;2024-01-11T00:41:58;103010.38;;;-4.39;76.08
3294;BME280;1659;51.470;6.770;2024-01-11T00:44:24;103016.09;;;-4.43;76.12
3294;BME280;1659;51.470;6.770;2024-01-11T00:46:51;103015.09;;;-4.45;76.64
3294;BME280;1659;51.470;6.770;2024-01-11T00:49:19;103010.56;;;-4.47;76.29
3294;BME280;1659;51.470;6.770;2024-01-11T00:51:45;103014.72;;;-4.49;76.55
3294;BME280;1659;51.470;6.770;2024-01-11T00:54:12;103012.81;;;-4.52;76.66
3294;BME280;1659;51.470;6.770;2024-01-11T00:56:38;103018.75;;;-4.53;76.43
3294;BME280;1659;51.470;6.770;2024-01-11T00:59:05;103009.09;;;-4.56;76.68
3294;BME280;1659;51.470;6.770;2024-01-11T01:01:32;103012.56;;;-4.55;76.65
3294;BME280;1659;51.470;6.770;2024-01-11T01:03:58;103015.00;;;-4.57;76.73
3294;BME280;1659;51.470;6.770;2024-01-11T01:06:26;103015.00;;;-4.57;76.75
3294;BME280;1659;51.470;6.770;2024-01-11T01:08:54;103014.88;;;-4.58;76.54
3294;BME280;1659;51.470;6.770;2024-01-11T01:11:20;103020.84;;;-4.59;77.03
3294;BME280;1659;51.470;6.770;2024-01-11T01:13:47;103024.06;;;-4.62;76.86
3294;BME280;1659;51.470;6.770;2024-01-11T01:16:13;103016.19;;;-4.63;76.89
3294;BME280;1659;51.470;6.770;2024-01-11T01:18:42;103016.06;;;-4.65;76.87
3294;BME280;1659;51.470;6.770;2024-01-11T01:21:08;103022.94;;;-4.65;77.01
3294;BME280;1659;51.470;6.770;2024-01-11T01:23:36;103019.34;;;-4.67;76.74
3294;BME280;1659;51.470;6.770;2024-01-11T01:26:03;103015.72;;;-4.69;77.05
3294;BME280;1659;51.470;6.770;2024-01-11T01:28:29;103016.38;;;-4.72;77.42
3294;BME280;1659;51.470;6.770;2024-01-11T01:30:56;103026.47;;;-4.75;77.08
3294;BME280;1659;51.470;6.770;2024-01-11T01:33:23;103028.13;;;-4.76;77.33
3294;BME280;1659;51.470;6.770;2024-01-11T01:35:49;103032.28;;;-4.78;76.93
3294;BME280;1659;51.470;6.770;2024-01-11T01:38:16;103027.91;;;-4.79;77.36
3294;BME280;1659;51.470;6.770;2024-01-11T01:40:44;103027.66;;;-4.82;77.52
3294;BME280;1659;51.470;6.770;2024-01-11T01:43:10;103036.03;;;-4.84;77.54
3294;BME280;1659;51.470;6.770;2024-01-11T01:45:38;103040.16;;;-4.86;77.53
3294;BME280;1659;51.470;6.770;2024-01-11T01:48:05;103040.03;;;-4.88;77.46
3294;BME280;1659;51.470;6.770;2024-01-11T01:50:32;103032.97;;;-4.90;77.18
3294;BME280;1659;51.470;6.770;2024-01-11T01:52:58;103021.50;;;-4.94;77.65
3294;BME280;1659;51.470;6.770;2024-01-11T01:55:26;103020.25;;;-4.99;77.66
3294;BME280;1659;51.470;6.770;2024-01-11T01:57:55;103026.16;;;-5.00;77.60
3294;BME280;1659;51.470;6.770;2024-01-11T02:00:24;103025.13;;;-5.02;77.27
3294;BME280;1659;51.470;6.770;2024-01-11T02:02:51;103023.31;;;-5.03;77.67
3294;BME280;1659;51.470;6.770;2024-01-11T02:05:18;103024.00;;;-5.06;77.41
3294;BME280;1659;51.470;6.770;2024-01-11T02:07:45;103024.63;;;-5.08;77.35
3294;BME280;1659;51.470;6.770;2024-01-11T02:10:12;103027.09;;;-5.10;77.35
3294;BME280;1659;51.470;6.770;2024-01-11T02:12:39;103021.81;;;-5.12;77.48
3294;BME280;1659;51.470;6.770;2024-01-11T02:15:09;103029.31;;;-5.15;77.50
3294;BME280;1659;51.470;6.770;2024-01-11T02:17:36;103040.25;;;-5.17;77.56
3294;BME280;1659;51.470;6.770;2024-01-11T02:20:02;103043.50;;;-5.20;77.46
3294;BME280;1659;51.470;6.770;2024-01-11T02:22:32;103040.66;;;-5.23;77.47
3294;BME280;1659;51.470;6.770;2024-01-11T02:25:02;103043.91;;;-5.25;77.67
3294;BME280;1659;51.470;6.770;2024-01-11T02:27:28;103040.28;;;-5.27;77.46
3294;BME280;1659;51.470;6.770;2024-01-11T02:29:55;103050.47;;;-5.29;77.30
3294;BME280;1659;51.470;6.770;2024-01-11T02:32:22;103053.69;;;-5.32;77.66
3294;BME280;1659;51.470;6.770;2024-01-11T02:34:48;103044.94;;;-5.34;77.57
3294;BME280;1659;51.470;6.770;2024-01-11T02:37:16;103039.50;;;-5.37;77.94
3294;BME280;1659;51.470;6.770;2024-01-11T02:39:43;103038.63;;;-5.37;77.70
3294;BME280;1659;51.470;6.770;2024-01-11T02:42:11;103036.81;;;-5.38;77.82
3294;BME280;1659;51.470;6.770;2024-01-11T02:44:38;103051.25;;;-5.40;77.79
3294;BME280;1659;51.470;6.770;2024-01-11T02:47:04;103042.50;;;-5.42;77.63
3294;BME280;1659;51.470;6.770;2024-01-11T02:49:31;103045.72;;;-5.45;77.79
3294;BME280;1659;51.470;6.770;2024-01-11T02:51:57;103041.34;;;-5.46;77.82
3294;BME280;1659;51.470;6.770;2024-01-11T02:54:24;103044.66;;;-5.47;78.04
3294;BME280;1659;51.470;6.770;2024-01-11T02:56:50;103039.44;;;-5.48;77.87
3294;BME280;1659;51.470;6.770;2024-01-11T02:59:18;103044.44;;;-5.50;78.13
3294;BME280;1659;51.470;6.770;2024-01-11T03:01:45;103037.47;;;-5.51;77.93
3294;BME280;1659;51.470;6.770;2024-01-11T03:04:11;103042.38;;;-5.54;78.19
3294;BME280;1659;51.470;6.770;2024-01-11T03:06:39;103038.91;;;-5.55;78.20
3294;BME280;1659;51.470;6.770;2024-01-11T03:09:06;103032.72;;;-5.57;77.94
3294;BME280;1659;51.470;6.770;2024-01-11T03:11:32;103036.06;;;-5.58;78.26
3294;BME280;1659;51.470;6.770;2024-01-11T03:13:59;103032.47;;;-5.60;77.89
3294;BME280;1659;51.470;6.770;2024-01-11T03:16:27;103022.81;;;-5.62;77.92
3294;BME280;1659;51.470;6.770;2024-01-11T03:18:53;103026.91;;;-5.64;78.10
3294;BME280;1659;51.470;6.770;2024-01-11T03:21:20;103027.72;;;-5.65;78.19
3294;BME280;1659;51.470;6.770;2024-01-11T03:23:46;103038.00;;;-5.65;78.11
3294;BME280;1659;51.470;6.770;2024-01-11T03:26:13;103048.19;;;-5.67;78.36
3294;BME280;1659;51.470;6.770;2024-01-11T03:28:40;103042.91;;;-5.69;78.08
3294;BME280;1659;51.470;6.770;2024-01-11T03:31:07;103048.03;;;-5.69;78.02
3294;BME280;1659;51.470;6.770;2024-01-11T03:33:35;103051.28;;;-5.71;77.98
3294;BME280;1659;51.470;6.770;2024-01-11T03:36:06;103040.84;;;-5.73;78.66
3294;BME280;1659;51.470;6.770;2024-01-11T03:38:33;103047.53;;;-5.75;78.42
3294;BME280;1659;51.470;6.770;2024-01-11T03:40:59;103051.63;;;-5.77;78.57
3294;BME280;1659;51.470;6.770;2024-01-11T03:43:26;103046.38;;;-5.78;78.16
3294;BME280;1659;51.470;6.770;2024-01-11T03:45:53;103041.25;;;-5.78;78.51
3294;BME280;1659;51.470;6.770;2024-01-11T03:48:19;103040.31;;;-5.79;78.62
3294;BME280;1659;51.470;6.770;2024-01-11T03:50:47;103063.13;;;-5.83;78.42
3294;BME280;1659;51.470;6.770;2024-01-11T03:53:14;103054.34;;;-5.85;78.55
3294;BME280;1659;51.470;6.770;2024-01-11T03:55:40;103060.28;;;-5.86;78.34
3294;BME280;1659;51.470;6.770;2024-01-11T03:58:07;103066.19;;;-5.88;78.34
3294;BME280;1659;51.470;6.770;2024-01-11T04:00:33;103069.56;;;-5.89;78.67
3294;BME280;1659;51.470;6.770;2024-01-11T04:03:00;103084.88;;;-5.90;78.55
3294;BME280;1659;51.470;6.770;2024-01-11T04:05:27;103071.84;;;-5.92;78.90
3294;BME280;1659;51.470;6.770;2024-01-11T04:07:55;103055.38;;;-5.94;78.79
3294;BME280;1659;51.470;6.770;2024-01-11T04:10:21;103060.41;;;-5.95;78.55
3294;BME280;1659;51.470;6.770;2024-01-11T04:12:48;103066.34;;;-5.96;78.78
3294;BME280;1659;51.470;6.770;2024-01-11T04:15:14;103072.28;;;-5.97;78.68
3294;BME280;1659;51.470;6.770;2024-01-11T04:17:41;103080.63;;;-6.00;78.69
3294;BME280;1659;51.470;6.770;2024-01-11T04:20:08;103078.72;;;-6.02;78.78
3294;BME280;1659;51.470;6.770;2024-01-11T04:22:35;103087.19;;;-6.03;78.76
3294;BME280;1659;51.470;6.770;2024-01-11T04:25:03;103075.84;;;-6.05;78.87
3294;BME280;1659;51.470;6.770;2024-01-11T04:27:30;103074.97;;;-6.06;78.93
3294;BME280;1659;51.470;6.770;2024-01-11T04:29:57;103067.88;;;-6.09;78.92
3294;BME280;1659;51.470;6.770;2024-01-11T04:32:23;103071.97;;;-6.11;79.02
3294;BME280;1659;51.470;6.770;2024-01-11T04:34:50;103075.22;;;-6.13;78.82
3294;BME280;1659;51.470;6.770;2024-01-11T04:37:17;103077.78;;;-6.13;79.02
3294;BME280;1659;51.470;6.770;2024-01-11T04:39:44;103080.22;;;-6.15;78.92
3294;BME280;1659;51.470;6.770;2024-01-11T04:42:12;103086.88;;;-6.17;78.91
3294;BME280;1659;51.470;6.770;2024-01-11T04:44:38;103086.00;;;-6.17;79.06
3294;BME280;1659;51.470;6.770;2024-01-11T04:47:05;103086.66;;;-6.20;79.15
3294;BME280;1659;51.470;6.770;2024-01-11T04:49:32;103083.16;;;-6.20;79.01
3294;BME280;1659;51.470;6.770;2024-01-11T04:51:58;103090.75;;;-6.22;79.13
3294;BME280;1659;51.470;6.770;2024-01-11T04:54:25;103083.78;;;-6.23;79.28
3294;BME280;1659;51.470;6.770;2024-01-11T04:56:51;103090.63;;;-6.23;79.20
3294;BME280;1659;51.470;6.770;2024-01-11T04:59:19;103077.63;;;-6.25;79.09
3294;BME280;1659;51.470;6.770;2024-01-11T05:01:46;103082.63;;;-6.27;79.13
3294;BME280;1659;51.470;6.770;2024-01-11T05:04:12;103091.25;;;-6.26;79.33
3294;BME280;1659;51.470;6.770;2024-01-11T05:06:39;103097.94;;;-6.28;79.14
3294;BME280;1659;51.470;6.770;2024-01-11T05:09:05;103091.88;;;-6.29;79.17
3294;BME280;1659;51.470;6.770;2024-01-11T05:11:32;103094.47;;;-6.29;79.40
3294;BME280;1659;51.470;6.770;2024-01-11T05:13:59;103106.31;;;-6.31;79.45
3294;BME280;1659;51.470;6.770;2024-01-11T05:16:27;103112.19;;;-6.32;79.38
3294;BME280;1659;51.470;6.770;2024-01-11T05:18:55;103114.91;;;-6.30;79.41
3294;BME280;1659;51.470;6.770;2024-01-11T05:21:22;103113.38;;;-6.28;79.45
3294;BME280;1659;51.470;6.770;2024-01-11T05:23:49;103111.69;;;-6.28;79.44
3294;BME280;1659;51.470;6.770;2024-01-11T05:26:16;103103.22;;;-6.27;79.35
3294;BME280;1659;51.470;6.770;2024-01-11T05:28:43;103115.19;;;-6.27;79.71
3294;BME280;1659;51.470;6.770;2024-01-11T05:31:10;103121.09;;;-6.28;79.53
3294;BME280;1659;51.470;6.770;2024-01-11T05:33:39;103112.47;;;-6.29;79.43
3294;BME280;1659;51.470;6.770;2024-01-11T05:36:06;103117.50;;;-6.30;79.62
3294;BME280;1659;51.470;6.770;2024-01-11T05:38:33;103114.13;;;-6.29;79.57
3294;BME280;1659;51.470;6.770;2024-01-11T05:40:59;103109.75;;;-6.30;79.63
3294;BME280;1659;51.470;6.770;2024-01-11T05:43:26;103119.91;;;-6.32;79.56
3294;BME280;1659;51.470;6.770;2024-01-11T05:45:53;103124.94;;;-6.33;79.45
3294;BME280;1659;51.470;6.770;2024-01-11T05:48:19;103134.31;;;-6.34;79.62
3294;BME280;1659;51.470;6.770;2024-01-11T05:50:47;103151.41;;;-6.34;79.63
3294;BME280;1659;51.470;6.770;2024-01-11T05:53:14;103158.25;;;-6.35;79.85
3294;BME280;1659;51.470;6.770;2024-01-11T05:55:40;103159.78;;;-6.37;79.70
3294;BME280;1659;51.470;6.770;2024-01-11T05:58:07;103150.38;;;-6.36;79.82
3294;BME280;1659;51.470;6.770;2024-01-11T06:00:33;103137.38;;;-6.38;79.81
3294;BME280;1659;51.470;6.770;2024-01-11T06:03:00;103130.31;;;-6.40;79.68
3294;BME280;1659;51.470;6.770;2024-01-11T06:05:27;103134.41;;;-6.42;79.98
3294;BME280;1659;51.470;6.770;2024-01-11T06:07:55;103130.81;;;-6.44;79.58
3294;BME280;1659;51.470;6.770;2024-01-11T06:10:21;103127.31;;;-6.45;79.84
3294;BME280;1659;51.470;6.770;2024-01-11T06:12:48;103120.38;;;-6.46;79.86
3294;BME280;1659;51.470;6.770;2024-01-11T06:15:14;103111.75;;;-6.47;79.87
3294;BME280;1659;51.470;6.770;2024-01-11T06:17:41;103127.97;;;-6.48;79.81
3294;BME280;1659;51.470;6.770;2024-01-11T06:20:08;103139.78;;;-6.50;79.86
3294;BME280;1659;51.470;6.770;2024-01-11T06:22:35;103126.78;;;-6.51;79.94
3294;BME280;1659;51.470;6.770;2024-01-11T06:25:04;103118.16;;;-6.52;79.99
3294;BME280;1659;51.470;6.770;2024-01-11T06:27:30;103111.22;;;-6.53;80.01
3294;BME280;1659;51.470;6.770;2024-01-11T06:29:57;103117.91;;;-6.55;79.95
3294;BME280;1659;51.470;6.770;2024-01-11T06:32:24;103120.34;;;-6.56;80.01
3294;BME280;1659;51.470;6.770;2024-01-11T06:34:50;103130.47;;;-6.58;80.02
3294;BME280;1659;51.470;6.770;2024-01-11T06:37:17;103129.09;;;-6.54;80.16
3294;BME280;1659;51.470;6.770;2024-01-11T06:39:44;103118.28;;;-6.50;79.93
3294;BME280;1659;51.470;6.770;2024-01-11T06:42:12;103118.56;;;-6.47;80.06
3294;BME280;1659;51.470;6.770;2024-01-11T06:44:38;103134.13;;;-6.46;80.10
3294;BME280;1659;51.470;6.770;2024-01-11T06:47:05;103141.56;;;-6.49;80.09
3294;BME280;1659;51.470;6.770;2024-01-11T06:49:31;103156.13;;;-6.49;79.99
3294;BME280;1659;51.470;6.770;2024-01-11T06:51:58;103159.31;;;-6.52;80.10
3294;BME280;1659;51.470;6.770;2024-01-11T06:54:24;103162.81;;;-6.51;80.12
3294;BME280;1659;51.470;6.770;2024-01-11T06:56:51;103166.28;;;-6.51;80.28
3294;BME280;1659;51.470;6.770;2024-01-11T06:59:19;103163.69;;;-6.51;80.14
3294;BME280;1659;51.470;6.770;2024-01-11T07:01:45;103161.13;;;-6.51;80.04
3294;BME280;1659;51.470;6.770;2024-01-11T07:04:12;103137.06;;;-6.51;80.22
3294;BME280;1659;51.470;6.770;2024-01-11T07:06:38;103142.38;;;-6.50;80.31
3294;BME280;1659;51.470;6.770;2024-01-11T07:09:05;103145.97;;;-6.48;80.16
3294;BME280;1659;51.470;6.770;2024-01-11T07:11:32;103155.38;;;-6.48;80.31
3294;BME280;1659;51.470;6.770;2024-01-11T07:13:58;103159.59;;;-6.49;80.31
3294;BME280;1659;51.470;6.770;2024-01-11T07:16:26;103166.41;;;-6.49;80.23
3294;BME280;1659;51.470;6.770;2024-01-11T07:18:53;103174.13;;;-6.49;80.35
3294;BME280;1659;51.470;6.770;2024-01-11T07:21:22;103187.75;;;-6.50;80.09
3294;BME280;1659;51.470;6.770;2024-01-11T07:23:54;103192.88;;;-6.50;80.40
3294;BME280;1659;51.470;6.770;2024-01-11T07:26:22;103190.44;;;-6.49;80.40
3294;BME280;1659;51.470;6.770;2024-01-11T07:28:48;103191.38;;;-6.48;80.54
3294;BME280;1659;51.470;6.770;2024-01-11T07:31:15;103194.84;;;-6.48;80.37
3294;BME280;1659;51.470;6.770;2024-01-11T07:33:43;103195.88;;;-6.46;80.48
3294;BME280;1659;51.470;6.770;2024-01-11T07:36:10;103187.41;;;-6.44;80.57
3294;BME280;1659;51.470;6.770;2024-01-11T07:38:37;103188.31;;;-6.44;80.37
3294;BME280;1659;51.470;6.770;2024-01-11T07:41:04;103181.63;;;-6.42;80.48
3294;BME280;1659;51.470;6.770;2024-01-11T07:43:30;103176.75;;;-6.39;80.48
3294;BME280;1659;51.470;6.770;2024-01-11T07:46:00;103167.63;;;-6.35;80.23
3294;BME280;1659;51.470;6.770;2024-01-11T07:48:27;103161.84;;;-6.33;80.45
3294;BME280;1659;51.470;6.770;2024-01-11T07:50:55;103162.13;;;-6.30;80.51
3294;BME280;1659;51.470;6.770;2024-01-11T07:53:22;103167.53;;;-6.27;80.35
3294;BME280;1659;51.470;6.770;2024-01-11T07:55:48;103164.47;;;-6.22;80.31
3294;BME280;1659;51.470;6.770;2024-01-11T07:58:15;103158.69;;;-6.20;80.28
3294;BME280;1659;51.470;6.770;2024-01-11T08:00:41;103161.53;;;-6.17;80.33
3294;BME280;1659;51.470;6.770;2024-01-11T08:03:08;103166.81;;;-6.15;80.63
3294;BME280;1659;51.470;6.770;2024-01-11T08:05:35;103166.19;;;-6.13;80.63
3294;BME280;1659;51.470;6.770;2024-01-11T08:08:04;103171.63;;;-6.10;80.56
3294;BME280;1659;51.470;6.770;2024-01-11T08:10:31;103159.13;;;-6.05;80.71
3294;BME280;1659;51.470;6.770;2024-01-11T08:12:57;103163.00;;;-6.00;80.65
3294;BME280;1659;51.470;6.770;2024-01-11T08:15:24;103160.03;;;-5.94;80.71
3294;BME280;1659;51.470;6.770;2024-01-11T08:17:51;103154.75;;;-5.85;80.51
3294;BME280;1659;51.470;6.770;2024-01-11T08:20:18;103157.38;;;-5.75;80.26
3294;BME280;1659;51.470;6.770;2024-01-11T08:22:44;103153.13;;;-5.64;80.42
3294;BME280;1659;51.470;6.770;2024-01-11T08:25:13;103166.16;;;-5.53;80.31
3294;BME280;1659;51.470;6.770;2024-01-11T08:27:40;103169.78;;;-5.40;80.88
3294;BME280;1659;51.470;6.770;2024-01-11T08:30:07;103179.47;;;-5.27;80.88
3294;BME280;1659;51.470;6.770;2024-01-11T08:32:34;103196.75;;;-5.16;80.70
3294;BME280;1659;51.470;6.770;2024-01-11T08:35:05;103184.13;;;-5.03;80.40
3294;BME280;1659;51.470;6.770;2024-01-11T08:37:31;103191.56;;;-4.85;80.41
3294;BME280;1659;51.470;6.770;2024-01-11T08:39:58;103196.59;;;-4.66;80.65
3294;BME280;1659;51.470;6.770;2024-01-11T08:42:26;103192.28;;;-4.45;80.97
3294;BME280;1659;51.470;6.770;2024-01-11T08:44:53;103183.13;;;-4.20;80.58
3294;BME280;1659;51.470;6.770;2024-01-11T08:47:20;103179.41;;;-3.91;80.60
3294;BME280;1659;51.470;6.770;2024-01-11T08:49:46;103190.03;;;-3.54;80.91
3294;BME280;1659;51.470;6.770;2024-01-11T08:52:13;103193.81;;;-3.05;80.21
3294;BME280;1659;51.470;6.770;2024-01-11T08:54:39;103174.88;;;-2.58;79.75
3294;BME280;1659;51.470;6.770;2024-01-11T08:57:06;103182.38;;;-2.14;79.37
3294;BME280;1659;51.470;6.770;2024-01-11T08:59:34;103187.41;;;-1.80;78.99
3294;BME280;1659;51.470;6.770;2024-01-11T09:02:00;103185.03;;;-1.52;79.48
3294;BME280;1659;51.470;6.770;2024-01-11T09:04:27;103184.47;;;-1.22;79.42
3294;BME280;1659;51.470;6.770;2024-01-11T09:06:55;103187.13;;;-0.96;79.71
3294;BME280;1659;51.470;6.770;2024-01-11T09:09:22;103180.38;;;-0.80;79.56
3294;BME280;1659;51.470;6.770;2024-01-11T09:11:48;103197.44;;;-0.70;79.65
3294;BME280;1659;51.470;6.770;2024-01-11T09:14:15;103199.75;;;-0.62;80.15
3294;BME280;1659;51.470;6.770;2024-01-11T09:16:43;103195.69;;;-0.45;80.44
3294;BME280;1659;51.470;6.770;2024-01-11T09:19:11;103204.19;;;-0.21;80.47
3294;BME280;1659;51.470;6.770;2024-01-11T09:21:38;103198.63;;;0.02;80.75
3294;BME280;1659;51.470;6.770;2024-01-11T09:24:04;103201.63;;;0.21;80.02
3294;BME280;1659;51.470;6.770;2024-01-11T09:26:31;103201.53;;;0.48;80.61
3294;BME280;1659;51.470;6.770;2024-01-11T09:28:57;103204.13;;;0.76;79.97
3294;BME280;1659;51.470;6.770;2024-01-11T09:31:24;103205.41;;;0.98;80.04
3294;BME280;1659;51.470;6.770;2024-01-11T09:33:52;103206.78;;;1.21;79.75
3294;BME280;1659;51.470;6.770;2024-01-11T09:36:19;103206.50;;;1.46;79.44
3294;BME280;1659;51.470;6.770;2024-01-11T09:38:45;103215.22;;;1.61;79.46
3294;BME280;1659;51.470;6.770;2024-01-11T09:41:14;103200.38;;;1.75;78.89
3294;BME280;1659;51.470;6.770;2024-01-11T09:43:41;103200.31;;;1.90;79.25
3294;BME280;1659;51.470;6.770;2024-01-11T09:46:09;103197.28;;;2.14;79.34
3294;BME280;1659;51.470;6.770;2024-01-11T09:48:38;103199.28;;;2.34;78.75
3294;BME280;1659;51.470;6.770;2024-01-11T09:51:09;103195.88;;;2.52;78.83
3294;BME280;1659;51.470;6.770;2024-01-11T09:53:37;103201.38;;;2.74;78.34
3294;BME280;1659;51.470;6.770;2024-01-11T09:56:07;103197.31;;;2.96;78.92
3294;BME280;1659;51.470;6.770;2024-01-11T09:58:35;103194.56;;;3.11;78.86
3294;BME280;1659;51.470;6.770;2024-01-11T10:01:07;103204.56;;;3.36;78.35
3294;BME280;1659;51.470;6.770;2024-01-11T10:03:35;103209.81;;;3.54;78.23
3294;BME280;1659;51.470;6.770;2024-01-11T10:06:02;103214.91;;;3.69;78.37
3294;BME280;1659;51.470;6.770;2024-01-11T10:08:31;103222.22;;;3.76;78.07
3294;BME280;1659;51.470;6.770;2024-01-11T10:10:59;103229.91;;;3.73;77.96
3294;BME280;1659;51.470;6.770;2024-01-11T10:13:27;103225.72;;;3.76;77.70
3294;BME280;1659;51.470;6.770;2024-01-11T10:16:05;103227.47;;;3.76;77.32
3294;BME280;1659;51.470;6.770;2024-01-11T10:22:02;103222.97;;;3.73;77.59
3294;BME280;1659;51.470;6.770;2024-01-11T10:24:47;103228.50;;;3.80;77.71
3294;BME280;1659;51.470;6.770;2024-01-11T10:27:13;103219.28;;;3.88;77.71
3294;BME280;1659;51.470;6.770;2024-01-11T10:29:40;103227.72;;;4.00;77.37
3294;BME280;1659;51.470;6.770;2024-01-11T10:32:06;103238.28;;;4.02;77.06
3294;BME280;1659;51.470;6.770;2024-01-11T10:34:43;103242.25;;;3.93;76.22
3294;BME280;1659;51.470;6.770;2024-01-11T10:37:24;103242.63;;;3.83;76.14
3294;BME280;1659;51.470;6.770;2024-01-11T10:40:06;103231.19;;;3.81;75.61
3294;BME280;1659;51.470;6.770;2024-01-11T10:42:55;103234.47;;;3.77;75.11
3294;BME280;1659;51.470;6.770;2024-01-11T10:45:33;103235.31;;;3.76;76.28
3294;BME280;1659;51.470;6.770;2024-01-11T10:48:17;103234.75;;;4.01;76.66
3294;BME280;1659;51.470;6.770;2024-01-11T10:54:06;103232.28;;;4.60;76.10
3294;BME280;1659;51.470;6.770;2024-01-11T10:56:34;103225.59;;;4.86;76.29
3294;BME280;1659;51.470;6.770;2024-01-11T10:59:04;103213.81;;;5.17;75.85
3294;BME280;1659;51.470;6.770;2024-01-11T11:01:31;103208.91;;;5.45;76.00
3294;BME280;1659;51.470;6.770;2024-01-11T11:03:59;103206.56;;;5.74;75.48
3294;BME280;1659;51.470;6.770;2024-01-11T11:06:27;103216.47;;;6.02;75.42
3294;BME280;1659;51.470;6.770;2024-01-11T11:08:55;103221.66;;;6.23;74.84
3294;BME280;1659;51.470;6.770;2024-01-11T11:11:24;103223.94;;;6.37;75.05
3294;BME280;1659;51.470;6.770;2024-01-11T11:13:52;103221.91;;;6.52;74.94
3294;BME280;1659;51.470;6.770;2024-01-11T11:16:20;103213.53;;;6.63;74.75
3294;BME280;1659;51.470;6.770;2024-01-11T11:18:47;103209.53;;;6.74;74.25
3294;BME280;1659;51.470;6.770;2024-01-11T11:21:15;103201.91;;;6.80;73.91
3294;BME280;1659;51.470;6.770;2024-01-11T11:23:40;103201.38;;;6.90;73.79
3294;BME280;1659;51.470;6.770;2024-01-11T11:26:07;103197.28;;;6.98;73.08
3294;BME280;1659;51.470;6.770;2024-01-11T11:28:34;103189.94;;;7.14;72.77
3294;BME280;1659;51.470;6.770;2024-01-11T11:31:03;103195.06;;;7.36;73.06
3294;BME280;1659;51.470;6.770;2024-01-11T11:33:30;103197.47;;;7.56;72.14
3294;BME280;1659;51.470;6.770;2024-01-11T11:35:58;103195.88;;;7.61;71.86
3294;BME280;1659;51.470;6.770;2024-01-11T11:38:26;103194.69;;;7.79;71.07
3294;BME280;1659;51.470;6.770;2024-01-11T11:40:54;103195.56;;;7.79;71.25
3294;BME280;1659;51.470;6.770;2024-01-11T11:43:22;103204.66;;;7.89;71.16
3294;BME280;1659;51.470;6.770;2024-01-11T11:45:50;103199.88;;;8.04;71.45
3294;BME280;1659;51.470;6.770;2024-01-11T11:48:50;103195.25;;;8.26;70.27
3294;BME280;1659;51.470;6.770;2024-01-11T11:51:21;103205.31;;;8.39;70.94
3294;BME280;1659;51.470;6.770;2024-01-11T11:53:49;103202.06;;;8.46;69.78
3294;BME280;1659;51.470;6.770;2024-01-11T11:56:17;103195.13;;;8.50;69.86
3294;BME280;1659;51.470;6.770;2024-01-11T11:58:44;103191.13;;;8.64;69.34
3294;BME280;1659;51.470;6.770;2024-01-11T12:01:12;103175.66;;;8.77;68.20
3294;BME280;1659;51.470;6.770;2024-01-11T12:03:41;103173.22;;;8.83;67.73
3294;BME280;1659;51.470;6.770;2024-01-11T12:06:13;103163.50;;;8.82;67.24
3294;BME280;1659;51.470;6.770;2024-01-11T12:08:41;103167.78;;;8.78;66.99
3294;BME280;1659;51.470;6.770;2024-01-11T12:11:08;103170.53;;;8.81;67.06
3294;BME280;1659;51.470;6.770;2024-01-11T12:13:37;103170.81;;;8.92;67.32
3294;BME280;1659;51.470;6.770;2024-01-11T12:16:04;103176.28;;;9.00;66.31
3294;BME280;1659;51.470;6.770;2024-01-11T12:18:30;103167.06;;;9.17;66.51
3294;BME280;1659;51.470;6.770;2024-01-11T12:20:57;103170.09;;;9.33;66.30
3294;BME280;1659;51.470;6.770;2024-01-11T12:23:25;103171.34;;;9.47;65.89
3294;BME280;1659;51.470;6.770;2024-01-11T12:25:51;103171.41;;;9.50;65.67
3294;BME280;1659;51.470;6.770;2024-01-11T12:28:18;103162.41;;;9.42;65.11
3294;BME280;1659;51.470;6.770;2024-01-11T12:30:45;103163.22;;;9.39;64.29
3294;BME280;1659;51.470;6.770;2024-01-11T12:33:12;103176.63;;;9.49;64.40
3294;BME280;1659;51.470;6.770;2024-01-11T12:35:39;103177.94;;;9.66;63.83
3294;BME280;1659;51.470;6.770;2024-01-11T12:38:05;103177.22;;;9.72;63.77
3294;BME280;1659;51.470;6.770;2024-01-11T12:40:34;103170.38;;;9.81;63.33
3294;BME280;1659;51.470;6.770;2024-01-11T12:43:02;103159.09;;;9.89;63.47
3294;BME280;1659;51.470;6.770;2024-01-11T12:45:29;103167.97;;;9.91;63.71
3294;BME280;1659;51.470;6.770;2024-01-11T12:47:57;103167.38;;;10.04;63.52
3294;BME280;1659;51.470;6.770;2024-01-11T12:50:25;103169.13;;;10.04;62.92
3294;BME280;1659;51.470;6.770;2024-01-11T12:53:04;103170.50;;;10.26;62.12
3294;BME280;1659;51.470;6.770;2024-01-11T12:55:31;103178.72;;;10.39;62.36
3294;BME280;1659;51.470;6.770;2024-01-11T12:58:05;103174.66;;;10.57;61.80
3294;BME280;1659;51.470;6.770;2024-01-11T13:00:31;103177.53;;;10.69;62.04
3294;BME280;1659;51.470;6.770;2024-01-11T13:02:58;103173.97;;;10.67;61.22
3294;BME280;1659;51.470;6.770;2024-01-11T13:05:25;103180.25;;;10.72;61.16
3294;BME280;1659;51.470;6.770;2024-01-11T13:07:52;103175.16;;;10.82;60.97
3294;BME280;1659;51.470;6.770;2024-01-11T13:10:18;103174.44;;;10.92;60.94
3294;BME280;1659;51.470;6.770;2024-01-11T13:12:45;103172.19;;;11.12;60.68
3294;BME280;1659;51.470;6.770;2024-01-11T13:15:13;103165.28;;;11.20;60.18
3294;BME280;1659;51.470;6.770;2024-01-11T13:17:40;103157.56;;;11.34;60.03
3294;BME280;1659;51.470;6.770;2024-01-11T13:20:07;103161.13;;;11.36;59.95